sensor_id;sensor_type;location;lat;lon;timestamp;P1;durP1;ratioP1;P2;durP2;ratioP2
49678;SDS011;35570;48.218;16.326;2023-03-03T00:00:10;19.48;;;13.15;;
49678;SDS011;35570;48.218;16.326;2023-03-03T00:02:36;18.67;;;13.93;;
49678;SDS011;35570;48.218;16.326;2023-03-03T00:05:02;20.98;;;13.07;;
49678;SDS011;35570;48.218;16.326;2023-03-03T00:07:28;19.77;;;13.52;;
49678;SDS011;35570;48.218;16.326;2023-03-03T00:09:53;19.27;;;12.70;;
49678;SDS011;35570;48.218;16.326;2023-03-03T00:12:26;17.88;;;13.15;;
49678;SDS011;35570;48.218;16.326;2023-03-03T00:14:54;19.52;;;13.35;;
49678;SDS011;35570;48.218;16.326;2023-03-03T00:17:28;18.50;;;12.75;;
49678;SDS011;35570;48.218;16.326;2023-03-03T00:27:53;18.48;;;12.75;;
49678;SDS011;35570;48.218;16.326;2023-03-03T00:30:22;17.10;;;12.57;;
49678;SDS011;35570;48.218;16.326;2023-03-03T00:32:52;17.43;;;13.13;;
49678;SDS011;35570;48.218;16.326;2023-03-03T00:35:24;17.15;;;12.32;;
49678;SDS011;35570;48.218;16.326;2023-03-03T00:37:59;20.75;;;13.88;;
49678;SDS011;35570;48.218;16.326;2023-03-03T00:40:37;19.42;;;13.00;;
49678;SDS011;35570;48.218;16.326;2023-03-03T00:43:27;19.15;;;13.13;;
49678;SDS011;35570;48.218;16.326;2023-03-03T00:46:01;19.45;;;13.88;;
49678;SDS011;35570;48.218;16.326;2023-03-03T00:48:28;21.75;;;13.35;;
49678;SDS011;35570;48.218;16.326;2023-03-03T00:50:55;19.13;;;13.77;;
49678;SDS011;35570;48.218;16.326;2023-03-03T00:53:22;17.20;;;13.38;;
49678;SDS011;35570;48.218;16.326;2023-03-03T00:55:50;19.73;;;13.88;;
49678;SDS011;35570;48.218;16.326;2023-03-03T00:58:17;16.20;;;12.52;;
49678;SDS011;35570;48.218;16.326;2023-03-03T01:00:45;17.90;;;13.00;;
49678;SDS011;35570;48.218;16.326;2023-03-03T01:03:17;21.77;;;14.38;;
49678;SDS011;35570;48.218;16.326;2023-03-03T01:05:45;20.67;;;14.00;;
49678;SDS011;35570;48.218;16.326;2023-03-03T01:08:11;18.75;;;13.88;;
49678;SDS011;35570;48.218;16.326;2023-03-03T01:10:41;18.92;;;14.27;;
49678;SDS011;35570;48.218;16.326;2023-03-03T01:13:15;21.27;;;13.70;;
49678;SDS011;35570;48.218;16.326;2023-03-03T01:15:41;18.90;;;13.80;;
49678;SDS011;35570;48.218;16.326;2023-03-03T01:18:08;22.65;;;13.85;;
49678;SDS011;35570;48.218;16.326;2023-03-03T01:20:35;21.02;;;14.65;;
49678;SDS011;35570;48.218;16.326;2023-03-03T01:23:01;21.63;;;14.55;;
49678;SDS011;35570;48.218;16.326;2023-03-03T01:25:27;24.88;;;15.55;;
49678;SDS011;35570;48.218;16.326;2023-03-03T01:27:53;21.15;;;14.55;;
49678;SDS011;35570;48.218;16.326;2023-03-03T01:30:19;20.17;;;14.90;;
49678;SDS011;35570;48.218;16.326;2023-03-03T01:32:45;23.45;;;15.15;;
49678;SDS011;35570;48.218;16.326;2023-03-03T01:35:11;23.27;;;14.60;;
49678;SDS011;35570;48.218;16.326;2023-03-03T01:37:36;22.05;;;14.25;;
49678;SDS011;35570;48.218;16.326;2023-03-03T01:40:03;22.23;;;14.63;;
49678;SDS011;35570;48.218;16.326;2023-03-03T01:42:31;24.95;;;16.48;;
49678;SDS011;35570;48.218;16.326;2023-03-03T01:45:09;20.80;;;14.68;;
49678;SDS011;35570;48.218;16.326;2023-03-03T01:47:36;23.95;;;15.95;;
49678;SDS011;35570;48.218;16.326;2023-03-03T01:50:04;21.48;;;15.75;;
49678;SDS011;35570;48.218;16.326;2023-03-03T01:52:35;24.20;;;16.05;;
49678;SDS011;35570;48.218;16.326;2023-03-03T01:55:06;24.10;;;15.07;;
49678;SDS011;35570;48.218;16.326;2023-03-03T01:57:39;25.58;;;17.25;;
49678;SDS011;35570;48.218;16.326;2023-03-03T02:00:08;25.00;;;15.98;;
49678;SDS011;35570;48.218;16.326;2023-03-03T02:02:35;28.80;;;16.67;;
49678;SDS011;35570;48.218;16.326;2023-03-03T02:05:03;20.80;;;15.68;;
49678;SDS011;35570;48.218;16.326;2023-03-03T02:07:29;23.80;;;16.38;;
49678;SDS011;35570;48.218;16.326;2023-03-03T02:09:58;24.05;;;15.77;;
49678;SDS011;35570;48.218;16.326;2023-03-03T02:12:32;25.35;;;16.67;;
49678;SDS011;35570;48.218;16.326;2023-03-03T02:15:17;23.83;;;16.88;;
49678;SDS011;35570;48.218;16.326;2023-03-03T02:17:43;26.48;;;16.75;;
49678;SDS011;35570;48.218;16.326;2023-03-03T02:22:48;27.27;;;18.08;;
49678;SDS011;35570;48.218;16.326;2023-03-03T02:25:27;26.65;;;17.92;;
49678;SDS011;35570;48.218;16.326;2023-03-03T02:28:01;28.40;;;18.48;;
49678;SDS011;35570;48.218;16.326;2023-03-03T02:30:27;28.17;;;19.42;;
49678;SDS011;35570;48.218;16.326;2023-03-03T02:32:53;29.27;;;19.42;;
49678;SDS011;35570;48.218;16.326;2023-03-03T02:38:00;30.73;;;20.50;;
49678;SDS011;35570;48.218;16.326;2023-03-03T02:40:32;26.83;;;18.20;;
49678;SDS011;35570;48.218;16.326;2023-03-03T02:43:01;29.85;;;19.10;;
49678;SDS011;35570;48.218;16.326;2023-03-03T02:45:30;28.55;;;20.02;;
49678;SDS011;35570;48.218;16.326;2023-03-03T02:47:55;29.83;;;20.20;;
49678;SDS011;35570;48.218;16.326;2023-03-03T02:50:21;30.20;;;20.23;;
49678;SDS011;35570;48.218;16.326;2023-03-03T02:52:47;30.85;;;20.27;;
49678;SDS011;35570;48.218;16.326;2023-03-03T02:55:12;31.25;;;20.48;;
49678;SDS011;35570;48.218;16.326;2023-03-03T02:57:38;32.10;;;20.10;;
49678;SDS011;35570;48.218;16.326;2023-03-03T03:00:04;26.35;;;18.35;;
49678;SDS011;35570;48.218;16.326;2023-03-03T03:02:30;30.20;;;20.50;;
49678;SDS011;35570;48.218;16.326;2023-03-03T03:04:56;30.98;;;22.38;;
49678;SDS011;35570;48.218;16.326;2023-03-03T03:07:21;31.77;;;23.17;;
49678;SDS011;35570;48.218;16.326;2023-03-03T03:09:47;29.58;;;21.30;;
49678;SDS011;35570;48.218;16.326;2023-03-03T03:12:13;30.33;;;20.92;;
49678;SDS011;35570;48.218;16.326;2023-03-03T03:14:40;31.50;;;20.73;;
49678;SDS011;35570;48.218;16.326;2023-03-03T03:17:05;30.88;;;21.25;;
49678;SDS011;35570;48.218;16.326;2023-03-03T03:19:31;32.20;;;22.75;;
49678;SDS011;35570;48.218;16.326;2023-03-03T03:21:56;30.52;;;21.98;;
49678;SDS011;35570;48.218;16.326;2023-03-03T03:24:22;32.83;;;21.20;;
49678;SDS011;35570;48.218;16.326;2023-03-03T03:26:48;31.23;;;21.85;;
49678;SDS011;35570;48.218;16.326;2023-03-03T03:29:13;33.33;;;22.42;;
49678;SDS011;35570;48.218;16.326;2023-03-03T03:31:39;41.80;;;29.20;;
49678;SDS011;35570;48.218;16.326;2023-03-03T03:34:05;40.97;;;27.20;;
49678;SDS011;35570;48.218;16.326;2023-03-03T03:36:30;35.42;;;24.13;;
49678;SDS011;35570;48.218;16.326;2023-03-03T03:38:56;35.55;;;24.20;;
49678;SDS011;35570;48.218;16.326;2023-03-03T03:41:21;36.22;;;23.95;;
49678;SDS011;35570;48.218;16.326;2023-03-03T03:43:47;32.88;;;22.88;;
49678;SDS011;35570;48.218;16.326;2023-03-03T03:46:13;31.98;;;21.88;;
49678;SDS011;35570;48.218;16.326;2023-03-03T03:48:38;33.40;;;22.50;;
49678;SDS011;35570;48.218;16.326;2023-03-03T03:51:04;35.60;;;23.25;;
49678;SDS011;35570;48.218;16.326;2023-03-03T03:53:30;33.45;;;22.65;;
49678;SDS011;35570;48.218;16.326;2023-03-03T03:55:56;36.10;;;23.92;;
49678;SDS011;35570;48.218;16.326;2023-03-03T03:58:21;33.05;;;23.35;;
49678;SDS011;35570;48.218;16.326;2023-03-03T04:00:47;31.80;;;21.65;;
49678;SDS011;35570;48.218;16.326;2023-03-03T04:03:12;33.03;;;23.15;;
49678;SDS011;35570;48.218;16.326;2023-03-03T04:05:38;35.40;;;24.10;;
49678;SDS011;35570;48.218;16.326;2023-03-03T04:08:04;33.45;;;22.13;;
49678;SDS011;35570;48.218;16.326;2023-03-03T04:10:30;34.13;;;23.48;;
49678;SDS011;35570;48.218;16.326;2023-03-03T04:12:55;32.35;;;23.40;;
49678;SDS011;35570;48.218;16.326;2023-03-03T04:15:21;35.13;;;23.95;;
49678;SDS011;35570;48.218;16.326;2023-03-03T04:17:47;34.80;;;24.02;;
49678;SDS011;35570;48.218;16.326;2023-03-03T04:20:13;39.22;;;25.48;;
49678;SDS011;35570;48.218;16.326;2023-03-03T04:22:40;37.17;;;25.85;;
49678;SDS011;35570;48.218;16.326;2023-03-03T04:25:06;40.10;;;26.58;;
49678;SDS011;35570;48.218;16.326;2023-03-03T04:27:33;38.83;;;27.02;;
49678;SDS011;35570;48.218;16.326;2023-03-03T04:30:00;40.47;;;27.38;;
49678;SDS011;35570;48.218;16.326;2023-03-03T04:32:26;44.78;;;28.48;;
49678;SDS011;35570;48.218;16.326;2023-03-03T04:34:52;45.90;;;30.98;;
49678;SDS011;35570;48.218;16.326;2023-03-03T04:37:18;47.75;;;31.98;;
49678;SDS011;35570;48.218;16.326;2023-03-03T04:39:44;49.65;;;30.83;;
49678;SDS011;35570;48.218;16.326;2023-03-03T04:42:10;46.35;;;30.55;;
49678;SDS011;35570;48.218;16.326;2023-03-03T04:44:36;43.28;;;29.20;;
49678;SDS011;35570;48.218;16.326;2023-03-03T04:47:01;44.42;;;30.50;;
49678;SDS011;35570;48.218;16.326;2023-03-03T04:49:27;43.78;;;29.83;;
49678;SDS011;35570;48.218;16.326;2023-03-03T04:51:54;45.83;;;30.20;;
49678;SDS011;35570;48.218;16.326;2023-03-03T04:54:19;45.92;;;29.02;;
49678;SDS011;35570;48.218;16.326;2023-03-03T04:56:45;39.97;;;28.52;;
49678;SDS011;35570;48.218;16.326;2023-03-03T04:59:10;44.40;;;29.13;;
49678;SDS011;35570;48.218;16.326;2023-03-03T05:01:36;45.40;;;29.77;;
49678;SDS011;35570;48.218;16.326;2023-03-03T05:04:02;40.25;;;28.92;;
49678;SDS011;35570;48.218;16.326;2023-03-03T05:06:27;43.00;;;29.02;;
49678;SDS011;35570;48.218;16.326;2023-03-03T05:08:53;41.28;;;28.67;;
49678;SDS011;35570;48.218;16.326;2023-03-03T05:11:19;41.28;;;28.90;;
49678;SDS011;35570;48.218;16.326;2023-03-03T05:13:45;40.25;;;28.67;;
49678;SDS011;35570;48.218;16.326;2023-03-03T05:16:10;39.63;;;27.90;;
49678;SDS011;35570;48.218;16.326;2023-03-03T05:18:36;40.63;;;27.77;;
49678;SDS011;35570;48.218;16.326;2023-03-03T05:21:02;42.67;;;28.05;;
49678;SDS011;35570;48.218;16.326;2023-03-03T05:23:28;42.85;;;27.38;;
49678;SDS011;35570;48.218;16.326;2023-03-03T05:25:55;44.80;;;27.80;;
49678;SDS011;35570;48.218;16.326;2023-03-03T05:28:21;44.22;;;28.85;;
49678;SDS011;35570;48.218;16.326;2023-03-03T05:30:46;42.15;;;27.95;;
49678;SDS011;35570;48.218;16.326;2023-03-03T05:33:13;42.40;;;28.42;;
49678;SDS011;35570;48.218;16.326;2023-03-03T05:35:40;40.10;;;28.52;;
49678;SDS011;35570;48.218;16.326;2023-03-03T05:38:06;39.17;;;27.25;;
49678;SDS011;35570;48.218;16.326;2023-03-03T05:40:32;44.28;;;28.10;;
49678;SDS011;35570;48.218;16.326;2023-03-03T05:42:58;42.25;;;26.60;;
49678;SDS011;35570;48.218;16.326;2023-03-03T05:45:23;40.75;;;27.27;;
49678;SDS011;35570;48.218;16.326;2023-03-03T05:47:50;38.42;;;26.60;;
49678;SDS011;35570;48.218;16.326;2023-03-03T05:50:16;40.78;;;27.73;;
49678;SDS011;35570;48.218;16.326;2023-03-03T05:52:43;37.65;;;25.98;;
49678;SDS011;35570;48.218;16.326;2023-03-03T05:55:09;40.60;;;27.25;;
49678;SDS011;35570;48.218;16.326;2023-03-03T05:57:35;37.17;;;25.63;;
49678;SDS011;35570;48.218;16.326;2023-03-03T06:00:02;39.03;;;25.85;;
49678;SDS011;35570;48.218;16.326;2023-03-03T06:02:29;37.20;;;24.52;;
49678;SDS011;35570;48.218;16.326;2023-03-03T06:04:55;40.75;;;24.83;;
49678;SDS011;35570;48.218;16.326;2023-03-03T06:07:20;39.50;;;26.00;;
49678;SDS011;35570;48.218;16.326;2023-03-03T06:09:46;40.42;;;26.55;;
49678;SDS011;35570;48.218;16.326;2023-03-03T06:12:12;39.53;;;27.83;;
49678;SDS011;35570;48.218;16.326;2023-03-03T06:14:37;37.83;;;26.38;;
49678;SDS011;35570;48.218;16.326;2023-03-03T06:17:03;38.05;;;27.80;;
49678;SDS011;35570;48.218;16.326;2023-03-03T06:19:30;43.92;;;28.17;;
49678;SDS011;35570;48.218;16.326;2023-03-03T06:21:55;41.38;;;28.25;;
49678;SDS011;35570;48.218;16.326;2023-03-03T06:24:21;39.70;;;27.65;;
49678;SDS011;35570;48.218;16.326;2023-03-03T06:26:50;44.90;;;28.05;;
49678;SDS011;35570;48.218;16.326;2023-03-03T06:29:16;40.40;;;29.60;;
49678;SDS011;35570;48.218;16.326;2023-03-03T06:31:42;42.85;;;29.58;;
49678;SDS011;35570;48.218;16.326;2023-03-03T06:34:08;41.90;;;29.05;;
49678;SDS011;35570;48.218;16.326;2023-03-03T06:36:34;43.60;;;29.63;;
49678;SDS011;35570;48.218;16.326;2023-03-03T06:39:00;44.33;;;29.20;;
49678;SDS011;35570;48.218;16.326;2023-03-03T06:41:26;47.08;;;31.27;;
49678;SDS011;35570;48.218;16.326;2023-03-03T06:43:51;45.92;;;30.35;;
49678;SDS011;35570;48.218;16.326;2023-03-03T06:46:17;49.17;;;33.60;;
49678;SDS011;35570;48.218;16.326;2023-03-03T06:48:43;46.70;;;33.10;;
49678;SDS011;35570;48.218;16.326;2023-03-03T06:51:16;50.67;;;33.50;;
49678;SDS011;35570;48.218;16.326;2023-03-03T06:53:54;50.40;;;34.47;;
49678;SDS011;35570;48.218;16.326;2023-03-03T06:56:22;53.75;;;35.70;;
49678;SDS011;35570;48.218;16.326;2023-03-03T06:58:49;55.30;;;37.88;;
49678;SDS011;35570;48.218;16.326;2023-03-03T07:01:20;52.88;;;36.80;;
49678;SDS011;35570;48.218;16.326;2023-03-03T07:03:45;54.78;;;38.40;;
49678;SDS011;35570;48.218;16.326;2023-03-03T07:06:20;61.67;;;38.67;;
49678;SDS011;35570;48.218;16.326;2023-03-03T07:08:48;57.40;;;38.75;;
49678;SDS011;35570;48.218;16.326;2023-03-03T07:11:16;56.28;;;38.42;;
49678;SDS011;35570;48.218;16.326;2023-03-03T07:13:51;58.08;;;39.75;;
49678;SDS011;35570;48.218;16.326;2023-03-03T07:18:51;56.42;;;38.97;;
49678;SDS011;35570;48.218;16.326;2023-03-03T07:23:48;56.85;;;37.20;;
49678;SDS011;35570;48.218;16.326;2023-03-03T07:26:28;54.38;;;37.90;;
49678;SDS011;35570;48.218;16.326;2023-03-03T07:34:00;50.85;;;36.95;;
49678;SDS011;35570;48.218;16.326;2023-03-03T07:36:30;55.03;;;36.35;;
49678;SDS011;35570;48.218;16.326;2023-03-03T07:39:01;51.28;;;36.08;;
49678;SDS011;35570;48.218;16.326;2023-03-03T07:41:39;53.67;;;35.35;;
49678;SDS011;35570;48.218;16.326;2023-03-03T07:44:05;52.28;;;35.80;;
49678;SDS011;35570;48.218;16.326;2023-03-03T07:46:43;49.47;;;34.92;;
49678;SDS011;35570;48.218;16.326;2023-03-03T07:51:56;50.58;;;36.00;;
49678;SDS011;35570;48.218;16.326;2023-03-03T07:57:25;51.60;;;35.00;;
49678;SDS011;35570;48.218;16.326;2023-03-03T08:03:04;50.97;;;34.45;;
49678;SDS011;35570;48.218;16.326;2023-03-03T08:08:48;48.17;;;32.30;;
49678;SDS011;35570;48.218;16.326;2023-03-03T08:11:13;42.70;;;31.38;;
49678;SDS011;35570;48.218;16.326;2023-03-03T08:13:40;46.83;;;33.05;;
49678;SDS011;35570;48.218;16.326;2023-03-03T08:23:32;43.38;;;31.88;;
49678;SDS011;35570;48.218;16.326;2023-03-03T08:25:57;46.47;;;32.08;;
49678;SDS011;35570;48.218;16.326;2023-03-03T08:28:23;45.30;;;31.65;;
49678;SDS011;35570;48.218;16.326;2023-03-03T08:30:49;42.63;;;30.25;;
49678;SDS011;35570;48.218;16.326;2023-03-03T08:33:15;39.08;;;30.77;;
49678;SDS011;35570;48.218;16.326;2023-03-03T08:35:47;44.80;;;32.63;;
49678;SDS011;35570;48.218;16.326;2023-03-03T08:38:13;43.47;;;30.13;;
49678;SDS011;35570;48.218;16.326;2023-03-03T08:40:41;42.40;;;32.20;;
49678;SDS011;35570;48.218;16.326;2023-03-03T08:43:07;39.25;;;30.40;;
49678;SDS011;35570;48.218;16.326;2023-03-03T08:45:34;42.70;;;31.15;;
49678;SDS011;35570;48.218;16.326;2023-03-03T08:48:00;42.40;;;30.17;;
49678;SDS011;35570;48.218;16.326;2023-03-03T08:50:26;38.97;;;30.13;;
49678;SDS011;35570;48.218;16.326;2023-03-03T08:52:59;40.42;;;29.15;;
49678;SDS011;35570;48.218;16.326;2023-03-03T08:55:24;40.97;;;29.83;;
49678;SDS011;35570;48.218;16.326;2023-03-03T08:57:50;40.63;;;29.10;;
49678;SDS011;35570;48.218;16.326;2023-03-03T09:00:16;39.13;;;28.67;;
49678;SDS011;35570;48.218;16.326;2023-03-03T09:02:43;38.17;;;29.13;;
49678;SDS011;35570;48.218;16.326;2023-03-03T09:05:09;37.70;;;28.17;;
49678;SDS011;35570;48.218;16.326;2023-03-03T09:07:36;36.50;;;28.55;;
49678;SDS011;35570;48.218;16.326;2023-03-03T09:10:02;34.13;;;27.15;;
49678;SDS011;35570;48.218;16.326;2023-03-03T09:12:39;39.20;;;29.25;;
49678;SDS011;35570;48.218;16.326;2023-03-03T09:17:51;41.42;;;29.30;;
49678;SDS011;35570;48.218;16.326;2023-03-03T09:20:21;37.00;;;28.25;;
49678;SDS011;35570;48.218;16.326;2023-03-03T09:22:54;38.20;;;27.42;;
49678;SDS011;35570;48.218;16.326;2023-03-03T09:25:38;37.15;;;28.15;;
49678;SDS011;35570;48.218;16.326;2023-03-03T09:30:44;38.05;;;28.73;;
49678;SDS011;35570;48.218;16.326;2023-03-03T09:33:27;37.58;;;27.35;;
49678;SDS011;35570;48.218;16.326;2023-03-03T09:36:00;41.33;;;28.17;;
49678;SDS011;35570;48.218;16.326;2023-03-03T09:38:28;38.45;;;27.98;;
49678;SDS011;35570;48.218;16.326;2023-03-03T09:49:34;37.80;;;27.95;;
49678;SDS011;35570;48.218;16.326;2023-03-03T09:57:20;37.17;;;27.63;;
49678;SDS011;35570;48.218;16.326;2023-03-03T10:00:15;41.47;;;28.67;;
49678;SDS011;35570;48.218;16.326;2023-03-03T10:02:53;39.40;;;26.70;;
49678;SDS011;35570;48.218;16.326;2023-03-03T10:05:48;37.78;;;28.38;;
49678;SDS011;35570;48.218;16.326;2023-03-03T10:08:45;36.90;;;27.50;;
49678;SDS011;35570;48.218;16.326;2023-03-03T10:24:59;34.95;;;26.70;;
49678;SDS011;35570;48.218;16.326;2023-03-03T10:33:41;35.97;;;25.60;;
49678;SDS011;35570;48.218;16.326;2023-03-03T10:42:30;34.45;;;26.15;;
49678;SDS011;35570;48.218;16.326;2023-03-03T10:45:26;32.53;;;24.55;;
49678;SDS011;35570;48.218;16.326;2023-03-03T10:51:26;32.30;;;24.08;;
49678;SDS011;35570;48.218;16.326;2023-03-03T10:59:13;32.17;;;24.25;;
49678;SDS011;35570;48.218;16.326;2023-03-03T11:01:56;25.45;;;20.30;;
49678;SDS011;35570;48.218;16.326;2023-03-03T11:07:38;27.58;;;21.55;;
49678;SDS011;35570;48.218;16.326;2023-03-03T11:18:08;21.98;;;19.55;;
49678;SDS011;35570;48.218;16.326;2023-03-03T11:26:38;26.48;;;20.13;;
49678;SDS011;35570;48.218;16.326;2023-03-03T11:39:45;23.42;;;19.83;;
49678;SDS011;35570;48.218;16.326;2023-03-03T11:45:28;26.63;;;21.05;;
49678;SDS011;35570;48.218;16.326;2023-03-03T11:51:07;20.45;;;18.23;;
49678;SDS011;35570;48.218;16.326;2023-03-03T12:01:41;21.05;;;18.40;;
49678;SDS011;35570;48.218;16.326;2023-03-03T12:12:31;27.70;;;20.38;;
49678;SDS011;35570;48.218;16.326;2023-03-03T12:20:46;27.75;;;21.35;;
49678;SDS011;35570;48.218;16.326;2023-03-03T12:23:40;27.20;;;21.45;;
49678;SDS011;35570;48.218;16.326;2023-03-03T12:32:46;24.23;;;20.77;;
49678;SDS011;35570;48.218;16.326;2023-03-03T12:35:09;22.92;;;19.70;;
49678;SDS011;35570;48.218;16.326;2023-03-03T12:37:46;25.30;;;19.85;;
49678;SDS011;35570;48.218;16.326;2023-03-03T12:40:40;22.23;;;18.35;;
49678;SDS011;35570;48.218;16.326;2023-03-03T12:45:54;23.23;;;19.98;;
49678;SDS011;35570;48.218;16.326;2023-03-03T12:56:37;24.38;;;20.35;;
49678;SDS011;35570;48.218;16.326;2023-03-03T13:05:16;21.38;;;18.35;;
49678;SDS011;35570;48.218;16.326;2023-03-03T13:10:48;22.85;;;18.75;;
49678;SDS011;35570;48.218;16.326;2023-03-03T13:16:10;21.42;;;19.05;;
49678;SDS011;35570;48.218;16.326;2023-03-03T13:26:28;23.77;;;20.75;;
49678;SDS011;35570;48.218;16.326;2023-03-03T13:29:24;24.25;;;20.92;;
49678;SDS011;35570;48.218;16.326;2023-03-03T13:31:54;25.95;;;19.75;;
49678;SDS011;35570;48.218;16.326;2023-03-03T13:34:24;26.30;;;19.98;;
49678;SDS011;35570;48.218;16.326;2023-03-03T13:39:52;25.08;;;19.33;;
49678;SDS011;35570;48.218;16.326;2023-03-03T13:42:25;24.20;;;19.55;;
49678;SDS011;35570;48.218;16.326;2023-03-03T13:48:00;21.45;;;18.90;;
49678;SDS011;35570;48.218;16.326;2023-03-03T13:50:43;23.30;;;19.52;;
49678;SDS011;35570;48.218;16.326;2023-03-03T13:56:28;20.77;;;18.00;;
49678;SDS011;35570;48.218;16.326;2023-03-03T14:04:57;19.98;;;16.63;;
49678;SDS011;35570;48.218;16.326;2023-03-03T14:10:31;18.02;;;16.23;;
49678;SDS011;35570;48.218;16.326;2023-03-03T14:15:57;20.58;;;18.17;;
49678;SDS011;35570;48.218;16.326;2023-03-03T14:23:52;23.63;;;17.58;;
49678;SDS011;35570;48.218;16.326;2023-03-03T14:26:23;21.80;;;17.52;;
49678;SDS011;35570;48.218;16.326;2023-03-03T14:28:49;18.70;;;16.67;;
49678;SDS011;35570;48.218;16.326;2023-03-03T14:31:28;21.98;;;18.60;;
49678;SDS011;35570;48.218;16.326;2023-03-03T14:34:13;25.30;;;19.80;;
49678;SDS011;35570;48.218;16.326;2023-03-03T14:36:40;26.17;;;20.90;;
49678;SDS011;35570;48.218;16.326;2023-03-03T14:41:52;22.33;;;18.63;;
49678;SDS011;35570;48.218;16.326;2023-03-03T14:44:25;22.48;;;18.67;;
49678;SDS011;35570;48.218;16.326;2023-03-03T14:47:04;20.38;;;17.15;;
49678;SDS011;35570;48.218;16.326;2023-03-03T14:49:37;21.15;;;17.63;;
49678;SDS011;35570;48.218;16.326;2023-03-03T14:54:44;21.23;;;17.33;;
49678;SDS011;35570;48.218;16.326;2023-03-03T15:02:46;18.15;;;15.05;;
49678;SDS011;35570;48.218;16.326;2023-03-03T15:05:33;20.73;;;18.42;;
49678;SDS011;35570;48.218;16.326;2023-03-03T15:10:39;24.73;;;20.65;;
49678;SDS011;35570;48.218;16.326;2023-03-03T15:16:02;16.80;;;14.40;;
49678;SDS011;35570;48.218;16.326;2023-03-03T15:19:36;17.15;;;15.07;;
49678;SDS011;35570;48.218;16.326;2023-03-03T15:21:52;20.13;;;14.75;;
49678;SDS011;35570;48.218;16.326;2023-03-03T15:27:03;19.13;;;13.15;;
49678;SDS011;35570;48.218;16.326;2023-03-03T15:32:32;15.38;;;11.98;;
49678;SDS011;35570;48.218;16.326;2023-03-03T15:37:57;16.58;;;13.02;;
49678;SDS011;35570;48.218;16.326;2023-03-03T15:40:29;14.48;;;12.70;;
49678;SDS011;35570;48.218;16.326;2023-03-03T15:48:34;17.08;;;14.13;;
49678;SDS011;35570;48.218;16.326;2023-03-03T15:51:40;18.95;;;15.15;;
49678;SDS011;35570;48.218;16.326;2023-03-03T15:56:55;18.90;;;15.20;;
49678;SDS011;35570;48.218;16.326;2023-03-03T16:04:44;17.35;;;14.30;;
49678;SDS011;35570;48.218;16.326;2023-03-03T16:07:45;18.35;;;15.23;;
49678;SDS011;35570;48.218;16.326;2023-03-03T16:10:28;21.55;;;15.02;;
49678;SDS011;35570;48.218;16.326;2023-03-03T16:16:24;20.52;;;15.45;;
49678;SDS011;35570;48.218;16.326;2023-03-03T16:21:52;24.83;;;19.88;;
49678;SDS011;35570;48.218;16.326;2023-03-03T16:24:39;25.45;;;20.65;;
49678;SDS011;35570;48.218;16.326;2023-03-03T16:35:38;20.50;;;16.02;;
49678;SDS011;35570;48.218;16.326;2023-03-03T16:40:36;20.13;;;16.05;;
49678;SDS011;35570;48.218;16.326;2023-03-03T16:51:50;22.60;;;16.85;;
49678;SDS011;35570;48.218;16.326;2023-03-03T17:09:22;21.98;;;16.13;;
49678;SDS011;35570;48.218;16.326;2023-03-03T17:20:59;23.77;;;17.00;;
49678;SDS011;35570;48.218;16.326;2023-03-03T17:36:58;21.02;;;16.23;;
49678;SDS011;35570;48.218;16.326;2023-03-03T17:45:37;22.98;;;16.20;;
49678;SDS011;35570;48.218;16.326;2023-03-03T17:48:11;20.33;;;15.15;;
49678;SDS011;35570;48.218;16.326;2023-03-03T17:56:24;20.23;;;14.48;;
49678;SDS011;35570;48.218;16.326;2023-03-03T18:18:04;24.33;;;17.17;;
49678;SDS011;35570;48.218;16.326;2023-03-03T18:23:30;20.63;;;15.05;;
49678;SDS011;35570;48.218;16.326;2023-03-03T18:29:12;23.00;;;16.40;;
49678;SDS011;35570;48.218;16.326;2023-03-03T18:40:15;25.08;;;17.35;;
49678;SDS011;35570;48.218;16.326;2023-03-03T18:42:34;25.10;;;17.45;;
49678;SDS011;35570;48.218;16.326;2023-03-03T18:53:29;26.55;;;19.15;;
49678;SDS011;35570;48.218;16.326;2023-03-03T18:55:59;25.58;;;18.70;;
49678;SDS011;35570;48.218;16.326;2023-03-03T19:04:27;25.88;;;20.38;;
49678;SDS011;35570;48.218;16.326;2023-03-03T19:09:58;26.88;;;19.88;;
49678;SDS011;35570;48.218;16.326;2023-03-03T19:12:42;26.90;;;20.40;;
49678;SDS011;35570;48.218;16.326;2023-03-03T19:20:44;31.75;;;20.73;;
49678;SDS011;35570;48.218;16.326;2023-03-03T19:23:16;28.55;;;21.17;;
49678;SDS011;35570;48.218;16.326;2023-03-03T19:25:45;32.33;;;21.80;;
49678;SDS011;35570;48.218;16.326;2023-03-03T19:37:56;32.53;;;23.33;;
49678;SDS011;35570;48.218;16.326;2023-03-03T19:40:46;33.05;;;23.70;;
49678;SDS011;35570;48.218;16.326;2023-03-03T19:49:33;33.80;;;24.65;;
49678;SDS011;35570;48.218;16.326;2023-03-03T20:00:42;32.97;;;24.23;;
49678;SDS011;35570;48.218;16.326;2023-03-03T20:11:43;35.88;;;25.15;;
49678;SDS011;35570;48.218;16.326;2023-03-03T20:14:20;34.40;;;23.60;;
49678;SDS011;35570;48.218;16.326;2023-03-03T20:16:58;32.17;;;23.65;;
49678;SDS011;35570;48.218;16.326;2023-03-03T20:22:34;32.80;;;24.40;;
49678;SDS011;35570;48.218;16.326;2023-03-03T20:27:43;36.03;;;25.67;;
49678;SDS011;35570;48.218;16.326;2023-03-03T20:33:23;33.65;;;24.23;;
49678;SDS011;35570;48.218;16.326;2023-03-03T20:39:29;36.35;;;25.45;;
49678;SDS011;35570;48.218;16.326;2023-03-03T20:42:13;30.75;;;24.02;;
49678;SDS011;35570;48.218;16.326;2023-03-03T20:47:20;32.53;;;24.10;;
49678;SDS011;35570;48.218;16.326;2023-03-03T20:52:56;33.55;;;24.00;;
49678;SDS011;35570;48.218;16.326;2023-03-03T21:01:24;33.85;;;24.45;;
49678;SDS011;35570;48.218;16.326;2023-03-03T21:03:53;34.72;;;25.85;;
49678;SDS011;35570;48.218;16.326;2023-03-03T21:06:20;36.55;;;25.05;;
49678;SDS011;35570;48.218;16.326;2023-03-03T21:08:52;32.38;;;23.63;;
49678;SDS011;35570;48.218;16.326;2023-03-03T21:11:21;33.97;;;24.88;;
49678;SDS011;35570;48.218;16.326;2023-03-03T21:13:56;34.75;;;25.20;;
49678;SDS011;35570;48.218;16.326;2023-03-03T21:21:22;35.15;;;25.38;;
49678;SDS011;35570;48.218;16.326;2023-03-03T21:23:50;35.55;;;25.45;;
49678;SDS011;35570;48.218;16.326;2023-03-03T21:26:42;37.15;;;24.98;;
49678;SDS011;35570;48.218;16.326;2023-03-03T21:29:25;42.90;;;31.40;;
49678;SDS011;35570;48.218;16.326;2023-03-03T21:31:54;40.38;;;28.73;;
49678;SDS011;35570;48.218;16.326;2023-03-03T21:34:30;40.42;;;28.85;;
49678;SDS011;35570;48.218;16.326;2023-03-03T21:37:01;41.88;;;29.42;;
49678;SDS011;35570;48.218;16.326;2023-03-03T21:42:09;37.80;;;26.98;;
49678;SDS011;35570;48.218;16.326;2023-03-03T21:44:40;37.70;;;27.00;;
49678;SDS011;35570;48.218;16.326;2023-03-03T21:47:14;37.35;;;27.20;;
49678;SDS011;35570;48.218;16.326;2023-03-03T21:49:45;38.78;;;27.90;;
49678;SDS011;35570;48.218;16.326;2023-03-03T21:52:12;35.67;;;25.88;;
49678;SDS011;35570;48.218;16.326;2023-03-03T21:54:40;41.20;;;27.27;;
49678;SDS011;35570;48.218;16.326;2023-03-03T21:57:07;37.20;;;26.65;;